Time;durP1;ratioP1;P1;durP2;ratioP2;P2;SDS_P1;SDS_P2;PMS_P1;PMS_P2;Temp;Humidity;BMP_temperature;BMP_pressure;BME280_temperature;BME280_humidity;BME280_pressure;Samples;Min_cycle;Max_cycle;Signal;HPM_P1;HPM_P2
2021/09/07 00:00:44;;;;;;;18.90;11.15;;;18.40;99.90;;;;;;5035553;28;20032;-70
2021/09/07 00:03:09;;;;;;;20.30;10.52;;;18.40;99.90;;;;;;5036232;28;20029;-70
2021/09/07 00:05:35;;;;;;;20.20;10.60;;;18.30;99.90;;;;;;5035564;28;20030;-70
2021/09/07 00:08:00;;;;;;;21.33;10.43;;;18.30;99.90;;;;;;5035626;28;20385;-70
2021/09/07 00:10:26;;;;;;;15.55;9.77;;;18.20;99.90;;;;;;5035416;28;20053;-70
2021/09/07 00:12:52;;;;;;;15.38;9.70;;;18.10;99.90;;;;;;5051421;28;20021;-70
2021/09/07 00:15:18;;;;;;;19.13;9.25;;;18.10;99.90;;;;;;5035604;28;20064;-70
2021/09/07 00:17:45;;;;;;;19.45;10.60;;;18.00;99.90;;;;;;5033918;28;20029;-70
2021/09/07 00:20:11;;;;;;;19.77;10.63;;;18.00;99.90;;;;;;5033925;28;20024;-70
2021/09/07 00:22:37;;;;;;;17.20;10.25;;;18.00;99.90;;;;;;5035484;28;20088;-70
2021/09/07 00:25:05;;;;;;;19.00;11.25;;;18.00;99.90;;;;;;5035593;28;20120;-70
2021/09/07 00:27:31;;;;;;;21.42;10.75;;;18.00;99.90;;;;;;5035092;28;20449;-70
2021/09/07 00:29:56;;;;;;;17.13;10.05;;;17.90;99.90;;;;;;5035245;28;20086;-70
2021/09/07 00:32:22;;;;;;;20.48;10.18;;;17.90;99.90;;;;;;5033573;28;20079;-70
2021/09/07 00:34:47;;;;;;;19.73;10.50;;;17.90;99.90;;;;;;5035405;28;20037;-70
2021/09/07 00:37:13;;;;;;;23.13;11.27;;;17.80;99.90;;;;;;5034237;28;20038;-70
2021/09/07 00:39:39;;;;;;;20.50;10.52;;;17.80;99.90;;;;;;5035267;28;20520;-71
2021/09/07 00:42:04;;;;;;;19.80;10.50;;;17.80;99.90;;;;;;5034728;28;20028;-70
2021/09/07 00:44:30;;;;;;;19.17;11.07;;;17.70;99.90;;;;;;5034860;28;20057;-70
2021/09/07 00:46:58;;;;;;;22.23;10.85;;;17.70;99.90;;;;;;5035230;28;20040;-71
2021/09/07 00:49:26;;;;;;;21.25;11.20;;;17.70;99.90;;;;;;5035156;28;20037;-70
2021/09/07 00:51:52;;;;;;;20.50;10.95;;;17.70;99.90;;;;;;5034889;28;20108;-71
2021/09/07 00:54:26;;;;;;;18.70;9.95;;;17.70;99.90;;;;;;5033596;28;20029;-71
2021/09/07 00:56:53;;;;;;;21.42;11.05;;;17.60;99.90;;;;;;5033646;28;20092;-71
2021/09/07 00:59:20;;;;;;;22.08;10.63;;;17.60;99.90;;;;;;5035098;28;20140;-71
2021/09/07 01:01:46;;;;;;;20.03;10.73;;;17.50;99.90;;;;;;5034530;28;20029;-70
2021/09/07 01:04:12;;;;;;;20.65;10.27;;;17.50;99.90;;;;;;5034454;28;20028;-70
2021/09/07 01:06:37;;;;;;;18.95;10.65;;;17.50;99.90;;;;;;5034457;28;20033;-70
2021/09/07 01:09:05;;;;;;;20.33;10.85;;;17.50;99.90;;;;;;5034841;28;20466;-71
2021/09/07 01:11:31;;;;;;;23.23;11.60;;;17.50;99.90;;;;;;5015191;28;20390;-71
2021/09/07 01:13:56;;;;;;;20.00;11.25;;;17.50;99.90;;;;;;5027371;28;20128;-71
2021/09/07 01:16:23;;;;;;;24.17;11.43;;;17.50;99.90;;;;;;5034887;28;20061;-70
2021/09/07 01:18:49;;;;;;;19.92;11.68;;;17.50;99.90;;;;;;5034504;28;20026;-71
2021/09/07 01:21:16;;;;;;;20.30;11.10;;;17.50;99.90;;;;;;5034735;28;20029;-71
2021/09/07 01:23:44;;;;;;;20.17;10.43;;;17.50;99.90;;;;;;5033792;28;20045;-71
2021/09/07 01:26:11;;;;;;;20.48;11.23;;;17.60;99.90;;;;;;5033055;28;20318;-70
2021/09/07 01:28:37;;;;;;;21.63;9.95;;;17.60;99.90;;;;;;5034291;28;20029;-71
2021/09/07 01:31:03;;;;;;;21.63;10.60;;;17.70;99.90;;;;;;5034625;28;20036;-70
2021/09/07 01:33:30;;;;;;;19.42;10.65;;;17.70;99.90;;;;;;5032944;28;20037;-70
2021/09/07 01:35:59;;;;;;;18.73;10.80;;;17.70;99.90;;;;;;5040455;28;20076;-70
2021/09/07 01:38:26;;;;;;;18.25;10.32;;;17.80;99.90;;;;;;5034118;28;20533;-70
2021/09/07 01:40:52;;;;;;;19.67;10.88;;;17.80;99.90;;;;;;5034382;28;20064;-71
2021/09/07 01:43:18;;;;;;;21.45;10.88;;;17.90;99.90;;;;;;5032917;28;20026;-71
2021/09/07 01:45:45;;;;;;;20.15;10.32;;;18.00;99.90;;;;;;5034056;28;20033;-70
2021/09/07 01:48:15;;;;;;;25.98;12.55;;;18.00;99.90;;;;;;5034113;28;20144;-70
2021/09/07 01:50:41;;;;;;;27.15;12.73;;;18.10;99.90;;;;;;5032516;28;20029;-70
2021/09/07 01:53:06;;;;;;;19.77;11.07;;;18.20;99.90;;;;;;5033658;28;20032;-70
2021/09/07 01:55:32;;;;;;;18.17;10.25;;;18.20;99.90;;;;;;5033894;28;20080;-70
2021/09/07 01:57:58;;;;;;;19.00;10.88;;;18.20;99.90;;;;;;5033177;28;20544;-70
2021/09/07 02:00:23;;;;;;;20.92;9.82;;;18.20;99.90;;;;;;5033427;28;20029;-70
2021/09/07 02:02:49;;;;;;;16.48;9.93;;;18.20;99.90;;;;;;5033566;28;20026;-70
2021/09/07 02:05:15;;;;;;;21.65;11.07;;;18.20;99.90;;;;;;5032008;28;20041;-71
2021/09/07 02:07:40;;;;;;;26.02;11.95;;;18.20;99.90;;;;;;5033849;28;20091;-70
2021/09/07 02:10:07;;;;;;;21.50;11.25;;;18.20;99.90;;;;;;5033146;28;20477;-70
2021/09/07 02:12:33;;;;;;;22.55;12.20;;;18.20;99.90;;;;;;5033021;28;20041;-70
2021/09/07 02:14:58;;;;;;;23.60;11.60;;;18.20;99.90;;;;;;5033832;28;20431;-71
2021/09/07 02:17:26;;;;;;;22.25;12.07;;;18.20;99.90;;;;;;5048613;28;20429;-70
2021/09/07 02:19:53;;;;;;;19.17;10.65;;;18.30;99.90;;;;;;5033347;28;20426;-70
2021/09/07 02:22:19;;;;;;;23.92;12.18;;;18.20;99.90;;;;;;5033266;28;20026;-70
2021/09/07 02:24:45;;;;;;;24.97;11.53;;;18.20;99.90;;;;;;5033620;28;20060;-70
2021/09/07 02:27:11;;;;;;;23.13;12.48;;;18.20;99.90;;;;;;5032987;28;20029;-70
2021/09/07 02:29:37;;;;;;;23.35;12.35;;;18.20;99.90;;;;;;5033306;28;20061;-70
2021/09/07 02:32:03;;;;;;;21.40;12.57;;;18.30;99.90;;;;;;5033110;28;20411;-70
2021/09/07 02:34:28;;;;;;;25.35;12.75;;;18.30;99.90;;;;;;5033570;28;20030;-70
2021/09/07 02:36:54;;;;;;;21.65;12.20;;;18.30;99.90;;;;;;5033055;28;20080;-70
2021/09/07 02:39:20;;;;;;;29.80;13.02;;;18.30;99.90;;;;;;5033260;28;20022;-70
2021/09/07 02:41:46;;;;;;;19.00;11.13;;;18.20;99.90;;;;;;5032820;28;20065;-71
2021/09/07 02:44:11;;;;;;;19.85;10.73;;;18.10;99.90;;;;;;5033021;28;20041;-70
2021/09/07 02:46:37;;;;;;;24.10;11.80;;;18.10;99.90;;;;;;5048456;28;20438;-70
2021/09/07 02:49:02;;;;;;;23.60;12.48;;;18.00;99.90;;;;;;5032117;28;20079;-70
2021/09/07 02:51:28;;;;;;;21.80;11.85;;;18.00;99.90;;;;;;5032944;28;20368;-71
2021/09/07 02:53:54;;;;;;;24.73;13.40;;;18.00;99.90;;;;;;5032447;28;20033;-70
2021/09/07 02:56:19;;;;;;;27.55;12.75;;;18.00;99.90;;;;;;5035591;28;20075;-70
2021/09/07 02:58:45;;;;;;;26.23;12.88;;;18.00;99.90;;;;;;5037005;28;20096;-70
2021/09/07 03:01:11;;;;;;;28.40;12.23;;;18.00;99.90;;;;;;5036281;28;20021;-70
2021/09/07 03:03:36;;;;;;;26.40;12.80;;;18.00;99.90;;;;;;5037013;28;20091;-70
2021/09/07 03:06:02;;;;;;;25.85;13.15;;;17.90;99.90;;;;;;5036882;28;20473;-70
2021/09/07 03:08:29;;;;;;;25.67;12.73;;;17.90;99.90;;;;;;5036372;28;20037;-70
2021/09/07 03:10:55;;;;;;;28.00;14.50;;;17.90;99.90;;;;;;5035111;28;20032;-70
2021/09/07 03:13:20;;;;;;;23.90;12.45;;;17.90;99.90;;;;;;5036766;28;20147;-70
2021/09/07 03:15:46;;;;;;;25.38;13.63;;;17.90;99.90;;;;;;5036886;28;20470;-70
2021/09/07 03:18:12;;;;;;;26.13;13.23;;;17.80;99.90;;;;;;5036190;28;20040;-70
2021/09/07 03:20:38;;;;;;;25.40;12.88;;;17.80;99.90;;;;;;5036770;28;20377;-70
2021/09/07 03:23:04;;;;;;;27.10;14.32;;;17.80;99.90;;;;;;5036481;28;20117;-70
2021/09/07 03:25:30;;;;;;;26.75;13.95;;;17.80;99.90;;;;;;5035467;28;20387;-70
2021/09/07 03:27:56;;;;;;;30.40;14.05;;;17.80;99.90;;;;;;5035830;28;20037;-70
2021/09/07 03:30:23;;;;;;;25.02;14.15;;;17.80;99.90;;;;;;5036470;28;20033;-70
2021/09/07 03:32:49;;;;;;;26.20;13.18;;;17.80;99.90;;;;;;5036523;28;20490;-70
2021/09/07 03:35:14;;;;;;;24.42;12.55;;;17.80;99.90;;;;;;5036738;28;20505;-70
2021/09/07 03:37:40;;;;;;;27.63;13.70;;;17.80;99.90;;;;;;5036454;28;20030;-70
2021/09/07 03:40:06;;;;;;;23.95;13.00;;;17.80;99.90;;;;;;5036186;28;20021;-70
2021/09/07 03:42:34;;;;;;;27.42;14.15;;;17.70;99.90;;;;;;5035414;28;20112;-70
2021/09/07 03:45:01;;;;;;;29.30;13.93;;;17.70;99.90;;;;;;5036096;28;20029;-70
2021/09/07 03:47:26;;;;;;;26.00;12.38;;;17.70;99.90;;;;;;5035990;28;20040;-71
2021/09/07 03:49:52;;;;;;;26.05;13.95;;;17.70;99.90;;;;;;5036064;28;20060;-71
2021/09/07 03:52:18;;;;;;;27.38;13.65;;;17.60;99.90;;;;;;5036222;28;20033;-70
2021/09/07 03:54:43;;;;;;;28.45;13.55;;;17.60;99.90;;;;;;5036406;28;20087;-70
2021/09/07 03:57:09;;;;;;;25.05;13.07;;;17.50;99.90;;;;;;5035854;28;20018;-70
2021/09/07 03:59:34;;;;;;;33.75;14.15;;;17.50;99.90;;;;;;5034679;28;20489;-70
2021/09/07 04:02:00;;;;;;;24.15;11.80;;;17.40;99.90;;;;;;5036029;28;20057;-70
2021/09/07 04:04:25;;;;;;;26.30;13.20;;;17.40;99.90;;;;;;5035866;28;20072;-70
2021/09/07 04:06:52;;;;;;;25.05;13.00;;;17.30;99.90;;;;;;5035159;28;20108;-70
2021/09/07 04:09:18;;;;;;;25.13;12.25;;;17.20;99.90;;;;;;5035276;28;20014;-70
2021/09/07 04:11:44;;;;;;;19.60;12.15;;;17.20;99.90;;;;;;5034244;28;20029;-69
2021/09/07 04:14:09;;;;;;;24.25;12.77;;;17.10;99.90;;;;;;5035887;28;20083;-69
2021/09/07 04:16:35;;;;;;;24.65;11.65;;;17.10;99.90;;;;;;5034533;28;20563;-69
2021/09/07 04:19:00;;;;;;;24.67;13.02;;;17.00;99.90;;;;;;5035483;28;20029;-69
2021/09/07 04:21:26;;;;;;;32.35;12.15;;;17.00;99.90;;;;;;5035216;28;20025;-70
2021/09/07 04:23:51;;;;;;;19.90;11.50;;;16.90;99.90;;;;;;5035168;28;20045;-70
2021/09/07 04:26:17;;;;;;;23.42;11.85;;;16.90;99.90;;;;;;5034297;28;20036;-70
2021/09/07 04:28:43;;;;;;;23.00;12.27;;;16.80;99.90;;;;;;5034834;28;20021;-70
2021/09/07 04:31:08;;;;;;;23.45;12.77;;;16.80;99.90;;;;;;5035503;28;20084;-70
2021/09/07 04:33:34;;;;;;;21.73;12.27;;;16.80;99.90;;;;;;5034254;28;20034;-70
2021/09/07 04:36:00;;;;;;;24.70;12.65;;;16.80;99.90;;;;;;5034857;28;20052;-70
2021/09/07 04:38:26;;;;;;;24.67;12.73;;;16.70;99.90;;;;;;5035152;28;20025;-70
2021/09/07 04:40:51;;;;;;;26.52;11.43;;;16.60;99.90;;;;;;5035404;28;20104;-70
2021/09/07 04:43:17;;;;;;;27.48;13.52;;;16.50;99.90;;;;;;5035211;28;20435;-71
2021/09/07 04:45:42;;;;;;;25.45;12.60;;;16.50;99.90;;;;;;5033521;28;20027;-70
2021/09/07 04:48:08;;;;;;;23.23;12.10;;;16.60;99.90;;;;;;5034980;28;20025;-72
2021/09/07 04:50:34;;;;;;;26.27;13.20;;;16.50;99.90;;;;;;5035639;28;20071;-70
2021/09/07 04:53:00;;;;;;;23.85;12.30;;;16.50;99.90;;;;;;5035291;28;20033;-70
2021/09/07 04:55:25;;;;;;;25.35;13.07;;;16.50;99.90;;;;;;5034620;28;20455;-71
2021/09/07 04:57:51;;;;;;;26.63;12.77;;;16.50;99.90;;;;;;5015558;28;20160;-70
2021/09/07 05:00:17;;;;;;;24.73;11.77;;;16.50;99.90;;;;;;5034096;28;20151;-70
2021/09/07 05:02:43;;;;;;;21.33;11.88;;;16.40;99.90;;;;;;5034872;28;20033;-70
2021/09/07 05:05:09;;;;;;;26.85;12.55;;;16.40;99.90;;;;;;5034667;28;20026;-71
2021/09/07 05:07:34;;;;;;;24.50;11.40;;;16.40;99.90;;;;;;5035022;28;20025;-70
2021/09/07 05:10:01;;;;;;;25.10;12.40;;;16.40;99.90;;;;;;5035021;28;20032;-70
2021/09/07 05:12:27;;;;;;;21.52;11.65;;;16.40;99.90;;;;;;5035062;28;20036;-70
2021/09/07 05:14:54;;;;;;;23.92;11.80;;;16.40;99.90;;;;;;5034628;28;20048;-70
2021/09/07 05:17:19;;;;;;;22.95;11.88;;;16.40;99.90;;;;;;5035224;28;20027;-70
2021/09/07 05:19:45;;;;;;;21.90;11.02;;;16.40;99.90;;;;;;5033361;28;20413;-70
2021/09/07 05:22:10;;;;;;;25.38;11.73;;;16.50;99.90;;;;;;5036438;28;20026;-70
2021/09/07 05:24:36;;;;;;;24.77;12.50;;;16.50;99.90;;;;;;5037569;28;20445;-70
2021/09/07 05:27:02;;;;;;;24.48;12.00;;;16.50;99.90;;;;;;5038196;28;20029;-70
2021/09/07 05:29:27;;;;;;;20.35;11.48;;;16.50;99.90;;;;;;5038000;28;20021;-70
2021/09/07 05:31:53;;;;;;;23.42;11.15;;;16.60;99.90;;;;;;5038229;28;20036;-70
2021/09/07 05:34:19;;;;;;;22.60;10.45;;;16.60;99.90;;;;;;5037471;28;20099;-70
2021/09/07 05:36:44;;;;;;;24.88;11.65;;;16.70;99.90;;;;;;5036629;28;20025;-72
2021/09/07 05:39:10;;;;;;;24.70;11.57;;;16.70;99.90;;;;;;5037029;28;20032;-71
2021/09/07 05:41:36;;;;;;;22.13;10.38;;;16.80;99.90;;;;;;5036151;28;20018;-70
2021/09/07 05:44:02;;;;;;;20.65;10.48;;;16.80;99.90;;;;;;5037058;28;20064;-70
2021/09/07 05:46:27;;;;;;;20.67;11.80;;;16.90;99.90;;;;;;5037196;28;20398;-70
2021/09/07 05:48:53;;;;;;;21.13;11.02;;;16.90;99.90;;;;;;5036682;28;20095;-70
2021/09/07 05:51:19;;;;;;;20.23;11.18;;;16.90;99.90;;;;;;5036365;28;20091;-70
2021/09/07 05:53:44;;;;;;;22.35;11.40;;;17.00;99.90;;;;;;5035724;28;20051;-71
2021/09/07 05:56:11;;;;;;;18.95;10.25;;;17.00;99.90;;;;;;5036472;28;20100;-71
2021/09/07 05:58:38;;;;;;;25.80;13.07;;;17.10;99.90;;;;;;5036672;28;20037;-70
2021/09/07 06:01:04;;;;;;;24.90;12.32;;;17.10;99.90;;;;;;5037801;28;20025;-72
2021/09/07 06:03:29;;;;;;;20.60;11.60;;;17.10;99.90;;;;;;5036616;28;20033;-70
2021/09/07 06:05:55;;;;;;;24.05;12.20;;;17.20;99.90;;;;;;5038345;28;20029;-73
2021/09/07 06:08:20;;;;;;;26.40;13.45;;;17.30;99.90;;;;;;5035718;28;20080;-71
2021/09/07 06:10:46;;;;;;;27.67;13.18;;;17.40;99.90;;;;;;5038166;28;20029;-72
2021/09/07 06:13:12;;;;;;;22.02;13.02;;;17.50;99.90;;;;;;5037853;28;20478;-70
2021/09/07 06:15:41;;;;;;;27.25;11.73;;;17.60;99.90;;;;;;5037570;28;20071;-71
2021/09/07 06:18:06;;;;;;;25.77;12.27;;;17.60;99.90;;;;;;5037898;28;20049;-70
2021/09/07 06:20:32;;;;;;;22.58;11.60;;;17.70;99.90;;;;;;5038110;28;20032;-72
2021/09/07 06:22:58;;;;;;;19.10;11.05;;;17.80;99.90;;;;;;5036415;28;20144;-71
2021/09/07 06:25:24;;;;;;;25.40;10.55;;;17.80;99.90;;;;;;5037349;28;20374;-72
2021/09/07 06:27:49;;;;;;;20.13;10.95;;;17.90;99.90;;;;;;5037244;28;20055;-72
2021/09/07 06:30:15;;;;;;;22.48;11.98;;;18.00;99.90;;;;;;5036320;28;20036;-71
2021/09/07 06:32:41;;;;;;;22.33;12.30;;;18.00;99.90;;;;;;5036933;28;20021;-72
2021/09/07 06:35:07;;;;;;;24.52;11.48;;;18.10;99.90;;;;;;5036658;28;20032;-71
2021/09/07 06:37:33;;;;;;;33.00;13.35;;;18.20;99.90;;;;;;5032542;28;20017;-71
2021/09/07 06:39:59;;;;;;;25.95;13.55;;;18.30;99.90;;;;;;5032054;28;20017;-71
2021/09/07 06:42:25;;;;;;;27.17;13.93;;;18.40;99.90;;;;;;5032889;28;20034;-70
2021/09/07 06:44:50;;;;;;;30.08;12.98;;;18.50;99.90;;;;;;5031970;28;20030;-70
2021/09/07 06:47:16;;;;;;;26.00;13.02;;;18.60;99.90;;;;;;5031871;28;20467;-70
2021/09/07 06:49:42;;;;;;;27.85;13.73;;;18.70;99.90;;;;;;5033808;28;20584;-70
2021/09/07 06:52:07;;;;;;;24.58;13.60;;;18.80;99.90;;;;;;5037391;28;20064;-70
2021/09/07 06:54:33;;;;;;;37.20;15.93;;;18.90;99.90;;;;;;5031803;28;20440;-70
2021/09/07 06:56:59;;;;;;;33.50;14.55;;;19.00;99.90;;;;;;5032876;28;20041;-70
2021/09/07 06:59:24;;;;;;;32.88;16.38;;;19.20;99.90;;;;;;5031858;28;20063;-70
2021/09/07 07:01:50;;;;;;;28.25;13.32;;;19.30;99.90;;;;;;5033316;28;20417;-70
2021/09/07 07:04:15;;;;;;;30.08;15.63;;;19.40;99.90;;;;;;5032598;28;20034;-70
2021/09/07 07:06:41;;;;;;;37.83;14.93;;;19.50;99.90;;;;;;5033048;28;20033;-70
2021/09/07 07:09:06;;;;;;;30.25;14.23;;;19.60;99.90;;;;;;5032284;28;20385;-70
2021/09/07 07:11:32;;;;;;;26.52;13.32;;;19.60;99.90;;;;;;5032318;28;20026;-70
2021/09/07 07:13:58;;;;;;;27.30;13.75;;;19.70;99.90;;;;;;5032756;28;20390;-70
2021/09/07 07:16:23;;;;;;;26.17;13.77;;;19.80;99.90;;;;;;5030491;28;20429;-70
2021/09/07 07:18:49;;;;;;;28.20;14.23;;;19.80;99.90;;;;;;5031747;28;20037;-71
2021/09/07 07:21:14;;;;;;;27.48;14.20;;;19.80;99.90;;;;;;5030421;28;20405;-71
2021/09/07 07:23:40;;;;;;;34.65;15.60;;;19.80;99.90;;;;;;5029548;28;20041;-71
2021/09/07 07:26:06;;;;;;;32.85;14.40;;;19.90;99.90;;;;;;5030897;28;20032;-71
2021/09/07 07:28:31;;;;;;;26.58;12.50;;;20.00;99.90;;;;;;5030586;28;20088;-71
2021/09/07 07:30:57;;;;;;;25.30;12.80;;;20.10;99.90;;;;;;5029955;28;20080;-71
2021/09/07 07:33:23;;;;;;;23.58;12.30;;;20.20;99.90;;;;;;5031199;28;20377;-72
2021/09/07 07:35:48;;;;;;;26.60;12.05;;;20.30;99.90;;;;;;5031526;28;20079;-70
2021/09/07 07:38:14;;;;;;;29.02;13.20;;;20.40;99.90;;;;;;5031682;28;20076;-71
2021/09/07 07:40:40;;;;;;;26.27;12.63;;;20.50;99.90;;;;;;5032355;28;20029;-72
2021/09/07 07:43:05;;;;;;;27.00;13.02;;;20.60;99.90;;;;;;5033773;28;20076;-72
2021/09/07 07:45:31;;;;;;;26.50;13.07;;;20.70;99.90;;;;;;5035576;28;20108;-72
2021/09/07 07:47:57;;;;;;;25.23;12.57;;;20.70;99.90;;;;;;5034972;28;20026;-72
2021/09/07 07:50:22;;;;;;;30.25;13.73;;;20.80;99.90;;;;;;5035333;28;20030;-72
2021/09/07 07:52:48;;;;;;;21.10;11.35;;;20.90;99.90;;;;;;5035206;28;20489;-71
2021/09/07 07:55:14;;;;;;;27.42;13.40;;;20.90;99.90;;;;;;5035018;28;20048;-72
2021/09/07 07:57:39;;;;;;;34.67;13.80;;;20.90;99.90;;;;;;5032587;28;20024;-71
2021/09/07 08:00:06;;;;;;;25.63;12.13;;;21.00;99.90;;;;;;5035444;28;20417;-72
2021/09/07 08:02:31;;;;;;;25.95;12.30;;;21.10;99.90;;;;;;5033695;28;20038;-71
2021/09/07 08:04:57;;;;;;;25.65;12.13;;;21.20;99.90;;;;;;5033189;28;20549;-72
2021/09/07 08:07:22;;;;;;;19.45;10.90;;;21.20;99.90;;;;;;5037127;28;20037;-72
2021/09/07 08:09:48;;;;;;;23.05;11.63;;;21.30;99.90;;;;;;5035505;28;20049;-71
2021/09/07 08:12:17;;;;;;;22.45;12.68;;;21.40;99.90;;;;;;5035963;28;20056;-71
2021/09/07 08:14:45;;;;;;;23.40;11.35;;;21.50;99.90;;;;;;5035959;28;20022;-71
2021/09/07 08:17:10;;;;;;;22.98;12.35;;;21.50;99.90;;;;;;5032629;28;20040;-71
2021/09/07 08:19:36;;;;;;;23.58;13.18;;;21.60;99.90;;;;;;5035420;28;20026;-71
2021/09/07 08:22:02;;;;;;;22.67;12.30;;;21.60;99.90;;;;;;5035302;28;20025;-72
2021/09/07 08:24:27;;;;;;;21.88;11.85;;;21.60;99.90;;;;;;5041080;28;20037;-71
2021/09/07 08:26:53;;;;;;;28.67;14.05;;;21.70;99.90;;;;;;5036574;28;20041;-74
2021/09/07 08:29:19;;;;;;;23.40;13.57;;;21.70;99.90;;;;;;5035197;28;20105;-72
2021/09/07 08:31:44;;;;;;;24.00;12.05;;;21.70;99.90;;;;;;5035731;28;20382;-73
2021/09/07 08:34:10;;;;;;;25.67;13.85;;;21.80;99.90;;;;;;5035603;28;20025;-73
2021/09/07 08:36:35;;;;;;;23.15;12.30;;;21.80;99.90;;;;;;5035589;28;20434;-72
2021/09/07 08:39:01;;;;;;;24.10;12.43;;;21.90;99.90;;;;;;5034267;28;20033;-72
2021/09/07 08:41:27;;;;;;;21.05;10.95;;;21.90;99.90;;;;;;5035221;28;20386;-73
2021/09/07 08:43:53;;;;;;;27.90;14.18;;;22.00;99.90;;;;;;5035565;28;20032;-73
2021/09/07 08:46:19;;;;;;;33.80;15.48;;;22.10;99.90;;;;;;5034902;28;20394;-71
2021/09/07 08:48:46;;;;;;;22.80;12.30;;;22.10;99.90;;;;;;5034565;28;20044;-75
2021/09/07 08:51:15;;;;;;;19.90;11.73;;;22.20;99.90;;;;;;5034062;28;20075;-74
2021/09/07 08:53:41;;;;;;;21.10;11.50;;;22.30;99.90;;;;;;5032978;28;20478;-75
2021/09/07 08:56:08;;;;;;;22.98;12.05;;;22.40;99.90;;;;;;5034335;28;20036;-71
2021/09/07 08:58:33;;;;;;;23.95;11.65;;;22.50;99.90;;;;;;5035417;28;20029;-73
2021/09/07 09:01:15;;;;;;;26.58;12.70;;;22.60;99.90;;;;;;5035525;28;20024;-74
2021/09/07 09:03:43;;;;;;;24.05;11.05;;;22.90;99.90;;;;;;5034331;28;20021;-73
2021/09/07 09:06:08;;;;;;;;;;;23.00;99.90;;;;;;5034455;28;20062;-69
2021/09/07 09:08:35;;;;;;;17.77;10.20;;;23.30;99.90;;;;;;5034796;28;19912;-69
2021/09/07 09:11:10;;;;;;;22.63;11.60;;;23.40;99.90;;;;;;5034985;28;20064;-71
2021/09/07 09:13:46;;;;;;;21.55;11.77;;;23.40;99.90;;;;;;5034563;28;20036;-70
2021/09/07 09:16:14;;;;;;;23.38;11.07;;;23.50;99.90;;;;;;5033922;28;20045;-72
2021/09/07 09:18:42;;;;;;;23.58;10.68;;;23.50;99.90;;;;;;5034739;28;20071;-72
2021/09/07 09:21:23;;;;;;;16.73;9.82;;;23.60;99.90;;;;;;5034732;28;20028;-71
2021/09/07 09:24:19;;;;;;;17.88;9.85;;;23.70;99.90;;;;;;5034342;28;20444;-71
2021/09/07 09:26:59;;;;;;;19.13;10.77;;;23.90;99.90;;;;;;5032582;28;20053;-70
2021/09/07 09:29:35;;;;;;;20.80;11.25;;;24.10;99.90;;;;;;5035003;28;20049;-70
2021/09/07 09:32:12;;;;;;;22.92;11.85;;;24.20;99.90;;;;;;5034441;28;20386;-71
2021/09/07 09:34:39;;;;;;;18.27;10.95;;;24.50;99.90;;;;;;5034489;28;20104;-71
2021/09/07 09:37:06;;;;;;;18.88;10.68;;;24.60;99.90;;;;;;5034585;28;20028;-71
2021/09/07 09:39:39;;;;;;;18.08;10.00;;;24.70;99.90;;;;;;5044333;28;20535;-71
2021/09/07 09:42:06;;;;;;;23.38;12.45;;;24.80;99.90;;;;;;5048274;28;20041;-73
2021/09/07 09:44:32;;;;;;;22.00;10.35;;;24.90;99.90;;;;;;5034632;28;20100;-71
2021/09/07 09:46:58;;;;;;;17.55;9.95;;;24.90;99.90;;;;;;5034397;28;20072;-70
2021/09/07 09:49:30;;;;;;;16.58;10.02;;;25.10;99.90;;;;;;5034222;28;20021;-72
2021/09/07 09:52:04;;;;;;;20.02;12.05;;;25.10;99.90;;;;;;5036431;28;20409;-72
2021/09/07 09:54:31;;;;;;;20.52;11.80;;;25.20;99.90;;;;;;5031764;28;20041;-71
2021/09/07 09:57:02;;;;;;;20.08;11.20;;;25.30;99.90;;;;;;5033481;28;20492;-71
2021/09/07 09:59:28;;;;;;;20.45;11.55;;;25.40;99.90;;;;;;5034021;28;20021;-71
2021/09/07 10:01:58;;;;;;;21.87;12.63;;;25.50;99.90;;;;;;5033824;28;20022;-70
2021/09/07 10:04:26;;;;;;;21.05;11.13;;;25.50;99.90;;;;;;5033657;28;20291;-71
2021/09/07 10:06:52;;;;;;;23.73;11.18;;;25.50;99.90;;;;;;5025259;28;20033;-71
2021/09/07 10:09:23;;;;;;;17.55;9.88;;;25.60;99.90;;;;;;5032508;28;20484;-71
2021/09/07 10:12:03;;;;;;;19.77;9.93;;;25.60;99.90;;;;;;5032424;28;20026;-72
2021/09/07 10:14:33;;;;;;;18.05;9.55;;;25.60;99.80;;;;;;5031609;28;20025;-71
2021/09/07 10:17:28;;;;;;;16.10;9.95;;;25.70;99.50;;;;;;5032851;28;20381;-71
2021/09/07 10:25:54;;;;;;;15.15;9.88;;;26.10;98.90;;;;;;5033742;28;20121;-72
2021/09/07 10:28:55;;;;;;;16.45;10.25;;;26.10;98.80;;;;;;5032230;28;20037;-72
2021/09/07 10:31:24;;;;;;;15.38;8.93;;;26.10;99.20;;;;;;5030373;28;20044;-72
2021/09/07 10:33:55;;;;;;;20.35;9.82;;;26.10;98.10;;;;;;5033138;28;20552;-71
2021/09/07 10:36:24;;;;;;;15.50;9.63;;;26.10;98.10;;;;;;5032619;28;20036;-73
2021/09/07 10:39:03;;;;;;;14.02;9.55;;;26.10;97.50;;;;;;5033592;28;20022;-71
2021/09/07 10:41:29;;;;;;;14.98;8.88;;;26.10;97.10;;;;;;5032264;28;20029;-72
2021/09/07 10:43:55;;;;;;;18.52;10.50;;;26.00;97.90;;;;;;5032942;28;20513;-72
2021/09/07 10:46:41;;;;;;;14.18;9.20;;;26.00;97.90;;;;;;5033378;28;20092;-71
2021/09/07 10:49:29;;;;;;;12.35;8.52;;;26.00;98.50;;;;;;5032977;28;20033;-72
2021/09/07 10:52:13;;;;;;;19.48;10.00;;;26.00;98.70;;;;;;5031777;28;20040;-72
2021/09/07 10:54:49;;;;;;;23.75;9.88;;;26.10;99.00;;;;;;5031963;28;20112;-71
2021/09/07 10:57:53;;;;;;;14.70;9.02;;;26.10;99.30;;;;;;5033014;28;20014;-71
2021/09/07 11:00:21;;;;;;;15.85;9.20;;;26.20;99.10;;;;;;5022718;28;20064;-74
2021/09/07 11:03:03;;;;;;;18.17;7.88;;;26.40;99.40;;;;;;5032280;28;20111;-73
2021/09/07 11:05:28;;;;;;;14.63;8.35;;;26.50;97.60;;;;;;5030032;28;20030;-71
2021/09/07 11:08:12;;;;;;;18.33;10.32;;;26.50;98.80;;;;;;5033096;28;20029;-72
2021/09/07 11:10:49;;;;;;;18.80;9.85;;;26.60;98.40;;;;;;5032333;28;20064;-72
2021/09/07 11:13:20;;;;;;;16.58;9.88;;;26.60;98.40;;;;;;5033291;28;20033;-72
2021/09/07 11:15:46;;;;;;;16.25;9.55;;;26.60;98.10;;;;;;5033065;28;20025;-72
2021/09/07 11:18:13;;;;;;;12.77;8.48;;;26.60;98.50;;;;;;5036797;28;20034;-72
2021/09/07 11:20:45;;;;;;;14.25;8.07;;;26.60;99.00;;;;;;5035235;28;20064;-72
2021/09/07 11:23:34;;;;;;;17.27;9.15;;;26.70;98.60;;;;;;5034118;28;20489;-72
2021/09/07 11:26:10;;;;;;;16.30;7.88;;;26.80;98.20;;;;;;5045711;28;20038;-73
2021/09/07 11:28:37;;;;;;;15.52;8.43;;;26.90;98.10;;;;;;5034497;28;20511;-72
2021/09/07 11:31:04;;;;;;;16.33;9.50;;;26.90;97.80;;;;;;5034015;28;20022;-73
2021/09/07 11:33:34;;;;;;;17.67;9.63;;;26.90;98.40;;;;;;5035497;28;20030;-73
2021/09/07 11:36:04;;;;;;;20.20;10.18;;;26.90;98.20;;;;;;5035757;28;20387;-72
2021/09/07 11:38:33;;;;;;;16.58;9.27;;;26.80;98.20;;;;;;5035899;28;20112;-72
2021/09/07 11:41:01;;;;;;;16.30;8.90;;;26.80;98.70;;;;;;5047224;28;20074;-70
2021/09/07 11:43:33;;;;;;;16.75;8.52;;;26.90;98.30;;;;;;5034530;28;20034;-72
2021/09/07 11:46:06;;;;;;;12.98;7.95;;;27.00;98.70;;;;;;5035557;28;20036;-72
2021/09/07 11:48:32;;;;;;;17.77;9.50;;;27.10;98.60;;;;;;5040219;28;20022;-71
2021/09/07 11:50:57;;;;;;;12.75;7.38;;;27.10;97.90;;;;;;5034637;28;20535;-71
2021/09/07 11:53:24;;;;;;;12.32;7.53;;;27.10;98.50;;;;;;5036427;28;20045;-72
2021/09/07 11:55:51;;;;;;;12.27;7.37;;;27.30;98.40;;;;;;5036372;28;20108;-71
2021/09/07 11:58:26;;;;;;;13.15;8.27;;;27.40;98.50;;;;;;5035994;28;20107;-72
2021/09/07 12:01:17;;;;;;;10.48;7.93;;;27.60;98.20;;;;;;5035635;28;20056;-71
2021/09/07 12:04:01;;;;;;;12.15;7.80;;;27.60;97.90;;;;;;5035561;28;20037;-72
2021/09/07 12:06:38;;;;;;;9.05;6.70;;;27.70;97.90;;;;;;5035768;28;20034;-72
2021/09/07 12:09:30;;;;;;;13.57;8.77;;;27.80;97.40;;;;;;5033986;28;20569;-73
2021/09/07 12:12:10;;;;;;;12.30;7.68;;;27.80;97.50;;;;;;5016597;28;20026;-75
2021/09/07 12:14:37;;;;;;;9.43;6.47;;;27.70;97.90;;;;;;5035419;28;20036;-72
2021/09/07 12:17:05;;;;;;;9.63;6.83;;;27.70;97.70;;;;;;5038420;28;20038;-74
2021/09/07 12:19:40;;;;;;;11.40;6.80;;;27.80;96.80;;;;;;5039879;28;20021;-72
2021/09/07 12:22:07;;;;;;;13.80;7.38;;;27.70;97.70;;;;;;5034597;28;20068;-72
2021/09/07 12:24:33;;;;;;;10.95;6.50;;;27.70;97.90;;;;;;5034975;28;20405;-72
2021/09/07 12:26:59;;;;;;;8.93;6.03;;;27.70;97.30;;;;;;5033469;28;20057;-72
2021/09/07 12:29:24;;;;;;;12.35;7.13;;;27.80;97.30;;;;;;5034511;28;20441;-72
2021/09/07 12:32:02;;;;;;;8.32;5.82;;;27.90;97.50;;;;;;5035748;28;20433;-70
2021/09/07 12:34:27;;;;;;;10.13;6.65;;;28.00;97.50;;;;;;5035336;28;20386;-70
2021/09/07 12:36:53;;;;;;;16.05;6.53;;;28.10;97.00;;;;;;5034816;28;20034;-71